Terminal Aerodrome Forecast
Issued by NWS

Home | Current Version | Previous Version | Text Only | Print | Product List | Glossary On
Versions: 1 2 3 4 5 6 7 8 9 10 11 12
000
FTUS44 KLIX 291140
TAFGPT
TAF
KGPT 291140Z 2912/3012 01003KT P6SM FEW015 SCT250
     FM291600 24004KT P6SM VCSH FEW020 SCT120
     FM291900 19008KT P6SM VCTS FEW030CB SCT250
     FM292300 18006KT P6SM SCT250
     FM300900 24004KT P6SM FEW090 SCT250=

USA.gov is the U.S. government's official web portal to all federal, state and local government web resources and services.